sensor_id;sensor_type;location;lat;lon;timestamp;P1;durP1;ratioP1;P2;durP2;ratioP2
30287;SDS011;17103;48.316;11.558;2022-11-15T00:00:24;5.68;;;3.65;;
30287;SDS011;17103;48.316;11.558;2022-11-15T00:02:51;5.68;;;3.50;;
30287;SDS011;17103;48.316;11.558;2022-11-15T00:05:17;5.47;;;3.30;;
30287;SDS011;17103;48.316;11.558;2022-11-15T00:07:43;4.35;;;3.38;;
30287;SDS011;17103;48.316;11.558;2022-11-15T00:10:09;3.85;;;2.78;;
30287;SDS011;17103;48.316;11.558;2022-11-15T00:12:35;3.92;;;3.00;;
30287;SDS011;17103;48.316;11.558;2022-11-15T00:15:01;5.13;;;3.30;;
30287;SDS011;17103;48.316;11.558;2022-11-15T00:17:27;4.97;;;3.20;;
30287;SDS011;17103;48.316;11.558;2022-11-15T00:19:53;4.10;;;2.97;;
30287;SDS011;17103;48.316;11.558;2022-11-15T00:22:18;3.40;;;2.72;;
30287;SDS011;17103;48.316;11.558;2022-11-15T00:24:44;3.85;;;2.78;;
30287;SDS011;17103;48.316;11.558;2022-11-15T00:27:09;4.30;;;2.80;;
30287;SDS011;17103;48.316;11.558;2022-11-15T00:29:35;4.45;;;3.40;;
30287;SDS011;17103;48.316;11.558;2022-11-15T00:32:03;4.57;;;3.10;;
30287;SDS011;17103;48.316;11.558;2022-11-15T00:34:29;6.13;;;4.68;;
30287;SDS011;17103;48.316;11.558;2022-11-15T00:36:55;7.07;;;4.45;;
30287;SDS011;17103;48.316;11.558;2022-11-15T00:39:21;4.85;;;3.35;;
30287;SDS011;17103;48.316;11.558;2022-11-15T00:41:47;5.30;;;4.05;;
30287;SDS011;17103;48.316;11.558;2022-11-15T00:44:12;4.68;;;3.92;;
30287;SDS011;17103;48.316;11.558;2022-11-15T00:46:38;7.53;;;4.63;;
30287;SDS011;17103;48.316;11.558;2022-11-15T00:49:04;5.18;;;4.15;;
30287;SDS011;17103;48.316;11.558;2022-11-15T00:51:29;4.95;;;3.78;;
30287;SDS011;17103;48.316;11.558;2022-11-15T00:53:55;4.68;;;4.00;;
30287;SDS011;17103;48.316;11.558;2022-11-15T00:56:21;6.28;;;4.05;;
30287;SDS011;17103;48.316;11.558;2022-11-15T00:58:46;6.00;;;4.10;;
30287;SDS011;17103;48.316;11.558;2022-11-15T01:01:13;5.10;;;3.58;;
30287;SDS011;17103;48.316;11.558;2022-11-15T01:03:39;5.30;;;3.88;;
30287;SDS011;17103;48.316;11.558;2022-11-15T01:06:07;4.85;;;3.35;;
30287;SDS011;17103;48.316;11.558;2022-11-15T01:08:33;3.92;;;2.97;;
30287;SDS011;17103;48.316;11.558;2022-11-15T01:11:03;4.88;;;3.35;;
30287;SDS011;17103;48.316;11.558;2022-11-15T01:13:34;4.40;;;3.00;;
30287;SDS011;17103;48.316;11.558;2022-11-15T01:16:10;6.00;;;3.15;;
30287;SDS011;17103;48.316;11.558;2022-11-15T01:18:45;4.32;;;3.08;;
30287;SDS011;17103;48.316;11.558;2022-11-15T01:21:15;3.70;;;2.75;;
30287;SDS011;17103;48.316;11.558;2022-11-15T01:23:42;5.97;;;2.53;;
30287;SDS011;17103;48.316;11.558;2022-11-15T01:26:11;4.10;;;2.88;;
30287;SDS011;17103;48.316;11.558;2022-11-15T01:28:39;5.88;;;3.05;;
30287;SDS011;17103;48.316;11.558;2022-11-15T01:31:07;3.85;;;2.80;;
30287;SDS011;17103;48.316;11.558;2022-11-15T01:33:37;3.90;;;2.70;;
30287;SDS011;17103;48.316;11.558;2022-11-15T01:36:07;3.97;;;2.72;;
30287;SDS011;17103;48.316;11.558;2022-11-15T01:38:36;3.85;;;2.25;;
30287;SDS011;17103;48.316;11.558;2022-11-15T01:41:02;5.82;;;2.42;;
30287;SDS011;17103;48.316;11.558;2022-11-15T01:43:35;3.58;;;2.72;;
30287;SDS011;17103;48.316;11.558;2022-11-15T01:48:42;3.47;;;2.30;;
30287;SDS011;17103;48.316;11.558;2022-11-15T01:51:09;3.30;;;2.25;;
30287;SDS011;17103;48.316;11.558;2022-11-15T01:53:37;4.75;;;2.80;;
30287;SDS011;17103;48.316;11.558;2022-11-15T01:56:05;4.72;;;3.60;;
30287;SDS011;17103;48.316;11.558;2022-11-15T01:58:33;5.03;;;3.38;;
30287;SDS011;17103;48.316;11.558;2022-11-15T02:01:01;4.13;;;3.17;;
30287;SDS011;17103;48.316;11.558;2022-11-15T02:03:29;4.78;;;3.75;;
30287;SDS011;17103;48.316;11.558;2022-11-15T02:05:59;5.65;;;4.10;;
30287;SDS011;17103;48.316;11.558;2022-11-15T02:08:24;4.75;;;3.60;;
30287;SDS011;17103;48.316;11.558;2022-11-15T02:10:52;4.28;;;3.10;;
30287;SDS011;17103;48.316;11.558;2022-11-15T02:13:17;4.85;;;3.30;;
30287;SDS011;17103;48.316;11.558;2022-11-15T02:15:46;3.95;;;3.05;;
30287;SDS011;17103;48.316;11.558;2022-11-15T02:18:30;5.63;;;3.58;;
30287;SDS011;17103;48.316;11.558;2022-11-15T02:40:12;6.13;;;3.97;;
30287;SDS011;17103;48.316;11.558;2022-11-15T02:42:55;4.28;;;3.20;;
30287;SDS011;17103;48.316;11.558;2022-11-15T02:45:51;3.90;;;3.13;;
30287;SDS011;17103;48.316;11.558;2022-11-15T02:48:25;3.30;;;2.60;;
30287;SDS011;17103;48.316;11.558;2022-11-15T02:50:51;2.67;;;2.28;;
30287;SDS011;17103;48.316;11.558;2022-11-15T02:53:17;3.63;;;2.83;;
30287;SDS011;17103;48.316;11.558;2022-11-15T02:55:48;4.05;;;2.50;;
30287;SDS011;17103;48.316;11.558;2022-11-15T03:09:24;3.55;;;2.80;;
30287;SDS011;17103;48.316;11.558;2022-11-15T03:11:55;3.47;;;2.65;;
30287;SDS011;17103;48.316;11.558;2022-11-15T03:14:29;3.05;;;2.15;;
30287;SDS011;17103;48.316;11.558;2022-11-15T03:17:15;3.72;;;2.80;;
30287;SDS011;17103;48.316;11.558;2022-11-15T03:22:19;3.45;;;2.47;;
30287;SDS011;17103;48.316;11.558;2022-11-15T03:24:50;4.55;;;3.60;;
30287;SDS011;17103;48.316;11.558;2022-11-15T03:27:20;4.25;;;3.10;;
30287;SDS011;17103;48.316;11.558;2022-11-15T03:29:52;4.68;;;2.85;;
30287;SDS011;17103;48.316;11.558;2022-11-15T03:32:33;4.82;;;3.15;;
30287;SDS011;17103;48.316;11.558;2022-11-15T03:35:03;4.00;;;3.13;;
30287;SDS011;17103;48.316;11.558;2022-11-15T03:40:24;5.70;;;3.20;;
30287;SDS011;17103;48.316;11.558;2022-11-15T03:43:04;4.25;;;3.22;;
30287;SDS011;17103;48.316;11.558;2022-11-15T03:45:39;5.30;;;3.88;;
30287;SDS011;17103;48.316;11.558;2022-11-15T03:48:13;6.78;;;3.47;;
30287;SDS011;17103;48.316;11.558;2022-11-15T03:50:43;3.88;;;2.85;;
30287;SDS011;17103;48.316;11.558;2022-11-15T03:53:12;3.58;;;2.70;;
30287;SDS011;17103;48.316;11.558;2022-11-15T03:55:38;4.47;;;3.65;;
30287;SDS011;17103;48.316;11.558;2022-11-15T03:58:04;4.22;;;2.92;;
30287;SDS011;17103;48.316;11.558;2022-11-15T04:00:30;5.25;;;2.78;;
30287;SDS011;17103;48.316;11.558;2022-11-15T04:02:56;3.25;;;2.70;;
30287;SDS011;17103;48.316;11.558;2022-11-15T04:05:22;3.97;;;2.80;;
30287;SDS011;17103;48.316;11.558;2022-11-15T04:07:47;3.80;;;2.53;;
30287;SDS011;17103;48.316;11.558;2022-11-15T04:10:13;3.90;;;2.65;;
30287;SDS011;17103;48.316;11.558;2022-11-15T04:12:40;3.55;;;2.70;;
30287;SDS011;17103;48.316;11.558;2022-11-15T04:17:43;5.57;;;2.80;;
30287;SDS011;17103;48.316;11.558;2022-11-15T04:20:14;3.40;;;2.42;;
30287;SDS011;17103;48.316;11.558;2022-11-15T04:23:09;2.40;;;2.17;;
30287;SDS011;17103;48.316;11.558;2022-11-15T04:28:29;3.10;;;2.10;;
30287;SDS011;17103;48.316;11.558;2022-11-15T04:30:55;3.45;;;2.30;;
30287;SDS011;17103;48.316;11.558;2022-11-15T04:33:21;3.65;;;2.20;;
30287;SDS011;17103;48.316;11.558;2022-11-15T04:35:47;2.67;;;2.20;;
30287;SDS011;17103;48.316;11.558;2022-11-15T04:38:33;2.92;;;2.17;;
30287;SDS011;17103;48.316;11.558;2022-11-15T04:40:59;2.75;;;2.08;;
30287;SDS011;17103;48.316;11.558;2022-11-15T04:43:25;7.03;;;2.40;;
30287;SDS011;17103;48.316;11.558;2022-11-15T04:45:51;4.80;;;2.13;;
30287;SDS011;17103;48.316;11.558;2022-11-15T04:48:21;2.72;;;2.45;;
30287;SDS011;17103;48.316;11.558;2022-11-15T04:50:48;4.88;;;2.58;;
30287;SDS011;17103;48.316;11.558;2022-11-15T04:53:14;2.58;;;1.98;;
30287;SDS011;17103;48.316;11.558;2022-11-15T04:55:40;3.55;;;3.00;;
30287;SDS011;17103;48.316;11.558;2022-11-15T04:58:11;3.00;;;2.35;;
30287;SDS011;17103;48.316;11.558;2022-11-15T05:00:47;2.97;;;2.38;;
30287;SDS011;17103;48.316;11.558;2022-11-15T05:03:13;3.58;;;2.33;;
30287;SDS011;17103;48.316;11.558;2022-11-15T05:05:57;3.67;;;2.55;;
30287;SDS011;17103;48.316;11.558;2022-11-15T05:08:25;2.28;;;1.92;;
30287;SDS011;17103;48.316;11.558;2022-11-15T05:10:51;3.83;;;1.88;;
30287;SDS011;17103;48.316;11.558;2022-11-15T05:13:17;2.38;;;1.83;;
30287;SDS011;17103;48.316;11.558;2022-11-15T05:15:43;3.40;;;2.05;;
30287;SDS011;17103;48.316;11.558;2022-11-15T05:18:08;2.50;;;1.98;;
30287;SDS011;17103;48.316;11.558;2022-11-15T05:20:44;3.42;;;2.10;;
30287;SDS011;17103;48.316;11.558;2022-11-15T05:23:10;2.53;;;2.30;;
30287;SDS011;17103;48.316;11.558;2022-11-15T05:25:38;4.40;;;2.55;;
30287;SDS011;17103;48.316;11.558;2022-11-15T05:28:06;2.60;;;2.08;;
30287;SDS011;17103;48.316;11.558;2022-11-15T05:30:35;3.55;;;2.50;;
30287;SDS011;17103;48.316;11.558;2022-11-15T05:33:02;3.22;;;2.40;;
30287;SDS011;17103;48.316;11.558;2022-11-15T05:35:38;2.92;;;2.13;;
30287;SDS011;17103;48.316;11.558;2022-11-15T05:38:08;3.30;;;2.72;;
30287;SDS011;17103;48.316;11.558;2022-11-15T05:40:38;2.72;;;2.47;;
30287;SDS011;17103;48.316;11.558;2022-11-15T05:43:04;2.95;;;2.40;;
30287;SDS011;17103;48.316;11.558;2022-11-15T05:45:32;3.03;;;2.67;;
30287;SDS011;17103;48.316;11.558;2022-11-15T05:50:38;5.17;;;2.47;;
30287;SDS011;17103;48.316;11.558;2022-11-15T05:53:07;3.03;;;2.50;;
30287;SDS011;17103;48.316;11.558;2022-11-15T05:55:33;3.63;;;2.63;;
30287;SDS011;17103;48.316;11.558;2022-11-15T05:58:00;4.35;;;3.35;;
30287;SDS011;17103;48.316;11.558;2022-11-15T06:00:28;2.83;;;2.30;;
30287;SDS011;17103;48.316;11.558;2022-11-15T06:02:53;4.07;;;3.00;;
30287;SDS011;17103;48.316;11.558;2022-11-15T06:05:21;4.50;;;2.63;;
30287;SDS011;17103;48.316;11.558;2022-11-15T06:07:47;4.85;;;2.30;;
30287;SDS011;17103;48.316;11.558;2022-11-15T06:10:13;3.67;;;2.80;;
30287;SDS011;17103;48.316;11.558;2022-11-15T06:15:35;7.30;;;3.00;;
30287;SDS011;17103;48.316;11.558;2022-11-15T06:18:01;4.90;;;2.60;;
30287;SDS011;17103;48.316;11.558;2022-11-15T06:20:31;5.47;;;2.70;;
30287;SDS011;17103;48.316;11.558;2022-11-15T06:23:02;8.77;;;3.78;;
30287;SDS011;17103;48.316;11.558;2022-11-15T06:25:31;8.17;;;5.13;;
30287;SDS011;17103;48.316;11.558;2022-11-15T06:27:57;7.05;;;4.03;;
30287;SDS011;17103;48.316;11.558;2022-11-15T06:30:24;4.35;;;2.70;;
30287;SDS011;17103;48.316;11.558;2022-11-15T06:32:50;3.80;;;2.58;;
30287;SDS011;17103;48.316;11.558;2022-11-15T06:35:17;3.55;;;2.58;;
30287;SDS011;17103;48.316;11.558;2022-11-15T06:37:42;3.90;;;2.95;;
30287;SDS011;17103;48.316;11.558;2022-11-15T06:40:09;5.00;;;2.97;;
30287;SDS011;17103;48.316;11.558;2022-11-15T06:42:40;3.88;;;2.65;;
30287;SDS011;17103;48.316;11.558;2022-11-15T06:45:07;5.50;;;3.08;;
30287;SDS011;17103;48.316;11.558;2022-11-15T06:47:34;4.30;;;2.53;;
30287;SDS011;17103;48.316;11.558;2022-11-15T06:50:01;3.58;;;2.22;;
30287;SDS011;17103;48.316;11.558;2022-11-15T06:52:27;2.92;;;2.42;;
30287;SDS011;17103;48.316;11.558;2022-11-15T06:54:57;2.75;;;2.22;;
30287;SDS011;17103;48.316;11.558;2022-11-15T06:57:23;4.47;;;3.30;;
30287;SDS011;17103;48.316;11.558;2022-11-15T06:59:48;3.30;;;2.75;;
30287;SDS011;17103;48.316;11.558;2022-11-15T07:02:15;5.90;;;2.90;;
30287;SDS011;17103;48.316;11.558;2022-11-15T07:04:40;4.10;;;3.13;;
30287;SDS011;17103;48.316;11.558;2022-11-15T07:07:06;7.18;;;3.00;;
30287;SDS011;17103;48.316;11.558;2022-11-15T07:09:36;4.97;;;3.25;;
30287;SDS011;17103;48.316;11.558;2022-11-15T07:12:05;5.50;;;4.20;;
30287;SDS011;17103;48.316;11.558;2022-11-15T07:14:32;6.70;;;3.80;;
30287;SDS011;17103;48.316;11.558;2022-11-15T07:16:58;5.80;;;3.53;;
30287;SDS011;17103;48.316;11.558;2022-11-15T07:19:24;5.15;;;3.38;;
30287;SDS011;17103;48.316;11.558;2022-11-15T07:21:50;5.10;;;3.47;;
30287;SDS011;17103;48.316;11.558;2022-11-15T07:24:19;4.75;;;3.53;;
30287;SDS011;17103;48.316;11.558;2022-11-15T07:26:45;4.72;;;3.22;;
30287;SDS011;17103;48.316;11.558;2022-11-15T07:29:10;4.40;;;3.58;;
30287;SDS011;17103;48.316;11.558;2022-11-15T07:31:36;4.47;;;3.45;;
30287;SDS011;17103;48.316;11.558;2022-11-15T07:34:06;5.28;;;4.10;;
30287;SDS011;17103;48.316;11.558;2022-11-15T07:36:34;6.78;;;3.88;;
30287;SDS011;17103;48.316;11.558;2022-11-15T07:38:59;5.43;;;4.32;;
30287;SDS011;17103;48.316;11.558;2022-11-15T07:41:27;5.68;;;3.65;;
30287;SDS011;17103;48.316;11.558;2022-11-15T07:43:55;7.30;;;4.07;;
30287;SDS011;17103;48.316;11.558;2022-11-15T07:46:22;6.55;;;3.05;;
30287;SDS011;17103;48.316;11.558;2022-11-15T07:48:48;5.05;;;3.20;;
30287;SDS011;17103;48.316;11.558;2022-11-15T07:51:14;7.32;;;3.45;;
30287;SDS011;17103;48.316;11.558;2022-11-15T07:53:46;4.35;;;2.88;;
30287;SDS011;17103;48.316;11.558;2022-11-15T07:56:13;5.28;;;3.22;;
30287;SDS011;17103;48.316;11.558;2022-11-15T08:01:08;3.75;;;3.35;;
30287;SDS011;17103;48.316;11.558;2022-11-15T08:03:51;3.92;;;3.05;;
30287;SDS011;17103;48.316;11.558;2022-11-15T08:06:21;4.50;;;2.45;;
30287;SDS011;17103;48.316;11.558;2022-11-15T08:08:47;4.38;;;3.28;;
30287;SDS011;17103;48.316;11.558;2022-11-15T08:11:23;4.35;;;2.70;;
30287;SDS011;17103;48.316;11.558;2022-11-15T08:13:49;4.50;;;2.95;;
30287;SDS011;17103;48.316;11.558;2022-11-15T08:16:15;3.67;;;2.88;;
30287;SDS011;17103;48.316;11.558;2022-11-15T08:18:40;3.47;;;2.95;;
30287;SDS011;17103;48.316;11.558;2022-11-15T08:21:08;2.90;;;1.80;;
30287;SDS011;17103;48.316;11.558;2022-11-15T08:23:36;5.07;;;2.30;;
30287;SDS011;17103;48.316;11.558;2022-11-15T08:26:04;3.83;;;2.88;;
30287;SDS011;17103;48.316;11.558;2022-11-15T08:28:31;4.03;;;2.75;;
30287;SDS011;17103;48.316;11.558;2022-11-15T08:30:59;3.35;;;2.53;;
30287;SDS011;17103;48.316;11.558;2022-11-15T08:33:27;5.60;;;3.55;;
30287;SDS011;17103;48.316;11.558;2022-11-15T08:35:55;5.93;;;2.90;;
30287;SDS011;17103;48.316;11.558;2022-11-15T08:38:22;5.13;;;3.00;;
30287;SDS011;17103;48.316;11.558;2022-11-15T08:40:48;4.10;;;2.97;;
30287;SDS011;17103;48.316;11.558;2022-11-15T08:43:15;3.03;;;2.42;;
30287;SDS011;17103;48.316;11.558;2022-11-15T08:45:41;3.65;;;3.35;;
30287;SDS011;17103;48.316;11.558;2022-11-15T08:48:06;7.55;;;3.35;;
30287;SDS011;17103;48.316;11.558;2022-11-15T08:50:32;3.97;;;2.90;;
30287;SDS011;17103;48.316;11.558;2022-11-15T08:53:03;3.75;;;3.13;;
30287;SDS011;17103;48.316;11.558;2022-11-15T08:55:31;4.00;;;3.00;;
30287;SDS011;17103;48.316;11.558;2022-11-15T08:57:57;5.53;;;3.17;;
30287;SDS011;17103;48.316;11.558;2022-11-15T09:00:23;8.45;;;2.97;;
30287;SDS011;17103;48.316;11.558;2022-11-15T09:02:48;3.85;;;2.63;;
30287;SDS011;17103;48.316;11.558;2022-11-15T09:05:14;5.43;;;3.50;;
30287;SDS011;17103;48.316;11.558;2022-11-15T09:07:43;4.43;;;2.95;;
30287;SDS011;17103;48.316;11.558;2022-11-15T09:10:09;3.47;;;3.17;;
30287;SDS011;17103;48.316;11.558;2022-11-15T09:12:35;4.55;;;3.17;;
30287;SDS011;17103;48.316;11.558;2022-11-15T09:15:01;4.97;;;3.67;;
30287;SDS011;17103;48.316;11.558;2022-11-15T09:17:26;6.65;;;3.58;;
30287;SDS011;17103;48.316;11.558;2022-11-15T09:19:53;6.13;;;3.05;;
30287;SDS011;17103;48.316;11.558;2022-11-15T09:22:19;5.38;;;3.08;;
30287;SDS011;17103;48.316;11.558;2022-11-15T09:24:44;5.45;;;3.10;;
30287;SDS011;17103;48.316;11.558;2022-11-15T09:27:14;4.85;;;3.45;;
30287;SDS011;17103;48.316;11.558;2022-11-15T09:29:40;4.22;;;3.10;;
30287;SDS011;17103;48.316;11.558;2022-11-15T09:32:06;4.68;;;3.60;;
30287;SDS011;17103;48.316;11.558;2022-11-15T09:34:31;6.63;;;3.83;;
30287;SDS011;17103;48.316;11.558;2022-11-15T09:36:57;4.68;;;3.53;;
30287;SDS011;17103;48.316;11.558;2022-11-15T09:39:23;4.40;;;3.38;;
30287;SDS011;17103;48.316;11.558;2022-11-15T09:45:22;3.03;;;2.72;;
30287;SDS011;17103;48.316;11.558;2022-11-15T09:48:00;4.03;;;3.38;;
30287;SDS011;17103;48.316;11.558;2022-11-15T09:50:43;5.63;;;3.22;;
30287;SDS011;17103;48.316;11.558;2022-11-15T09:53:18;3.88;;;3.13;;
30287;SDS011;17103;48.316;11.558;2022-11-15T09:59:15;5.13;;;3.03;;
30287;SDS011;17103;48.316;11.558;2022-11-15T10:04:23;4.80;;;3.00;;
30287;SDS011;17103;48.316;11.558;2022-11-15T10:07:12;3.85;;;2.88;;
30287;SDS011;17103;48.316;11.558;2022-11-15T10:09:56;3.08;;;2.10;;
30287;SDS011;17103;48.316;11.558;2022-11-15T10:15:05;3.25;;;2.45;;
30287;SDS011;17103;48.316;11.558;2022-11-15T10:20:30;4.90;;;2.45;;
30287;SDS011;17103;48.316;11.558;2022-11-15T10:23:01;3.00;;;2.17;;
30287;SDS011;17103;48.316;11.558;2022-11-15T10:25:40;2.78;;;2.20;;
30287;SDS011;17103;48.316;11.558;2022-11-15T10:30:39;2.42;;;2.03;;
30287;SDS011;17103;48.316;11.558;2022-11-15T10:33:27;4.07;;;2.20;;
30287;SDS011;17103;48.316;11.558;2022-11-15T10:41:32;2.97;;;2.40;;
30287;SDS011;17103;48.316;11.558;2022-11-15T10:44:30;2.25;;;1.90;;
30287;SDS011;17103;48.316;11.558;2022-11-15T10:49:30;3.10;;;2.00;;
30287;SDS011;17103;48.316;11.558;2022-11-15T10:52:19;3.00;;;2.15;;
30287;SDS011;17103;48.316;11.558;2022-11-15T10:54:55;3.53;;;2.13;;
30287;SDS011;17103;48.316;11.558;2022-11-15T10:57:52;4.45;;;2.47;;
30287;SDS011;17103;48.316;11.558;2022-11-15T11:00:32;2.50;;;2.05;;
30287;SDS011;17103;48.316;11.558;2022-11-15T11:03:01;2.30;;;2.10;;
30287;SDS011;17103;48.316;11.558;2022-11-15T11:05:37;3.58;;;2.10;;
30287;SDS011;17103;48.316;11.558;2022-11-15T11:10:46;3.53;;;2.72;;
30287;SDS011;17103;48.316;11.558;2022-11-15T11:24:09;4.20;;;2.30;;
30287;SDS011;17103;48.316;11.558;2022-11-15T11:35:22;3.70;;;2.40;;
30287;SDS011;17103;48.316;11.558;2022-11-15T11:43:47;6.30;;;2.58;;
30287;SDS011;17103;48.316;11.558;2022-11-15T11:52:08;3.42;;;2.95;;
30287;SDS011;17103;48.316;11.558;2022-11-15T11:58:04;4.05;;;3.20;;
30287;SDS011;17103;48.316;11.558;2022-11-15T12:17:38;3.38;;;2.90;;
30287;SDS011;17103;48.316;11.558;2022-11-15T12:20:22;4.43;;;2.90;;
30287;SDS011;17103;48.316;11.558;2022-11-15T12:22:54;4.68;;;3.25;;
30287;SDS011;17103;48.316;11.558;2022-11-15T12:31:13;4.85;;;2.72;;
30287;SDS011;17103;48.316;11.558;2022-11-15T12:33:49;4.68;;;3.08;;
30287;SDS011;17103;48.316;11.558;2022-11-15T12:36:30;3.10;;;2.80;;
30287;SDS011;17103;48.316;11.558;2022-11-15T12:39:09;3.50;;;3.08;;
30287;SDS011;17103;48.316;11.558;2022-11-15T12:41:40;4.78;;;3.25;;
30287;SDS011;17103;48.316;11.558;2022-11-15T12:47:21;3.88;;;2.75;;
30287;SDS011;17103;48.316;11.558;2022-11-15T12:49:53;2.85;;;2.55;;
30287;SDS011;17103;48.316;11.558;2022-11-15T12:52:20;3.42;;;2.63;;
30287;SDS011;17103;48.316;11.558;2022-11-15T12:54:53;3.08;;;2.55;;
30287;SDS011;17103;48.316;11.558;2022-11-15T12:57:37;3.30;;;3.00;;
30287;SDS011;17103;48.316;11.558;2022-11-15T13:03:12;3.70;;;3.17;;
30287;SDS011;17103;48.316;11.558;2022-11-15T13:05:53;4.10;;;2.92;;
30287;SDS011;17103;48.316;11.558;2022-11-15T13:08:39;4.60;;;3.17;;
30287;SDS011;17103;48.316;11.558;2022-11-15T13:11:51;3.55;;;2.97;;
30287;SDS011;17103;48.316;11.558;2022-11-15T13:17:30;3.83;;;3.30;;
30287;SDS011;17103;48.316;11.558;2022-11-15T13:20:01;3.85;;;3.00;;
30287;SDS011;17103;48.316;11.558;2022-11-15T13:30:41;5.03;;;4.00;;
30287;SDS011;17103;48.316;11.558;2022-11-15T13:33:27;6.93;;;3.50;;
30287;SDS011;17103;48.316;11.558;2022-11-15T13:36:13;5.78;;;3.58;;
30287;SDS011;17103;48.316;11.558;2022-11-15T13:38:43;4.68;;;2.90;;
30287;SDS011;17103;48.316;11.558;2022-11-15T13:43:55;4.57;;;2.83;;
30287;SDS011;17103;48.316;11.558;2022-11-15T13:46:33;5.40;;;2.40;;
30287;SDS011;17103;48.316;11.558;2022-11-15T13:49:04;3.95;;;3.38;;
30287;SDS011;17103;48.316;11.558;2022-11-15T13:51:42;3.08;;;2.75;;
30287;SDS011;17103;48.316;11.558;2022-11-15T13:54:20;3.10;;;2.80;;
30287;SDS011;17103;48.316;11.558;2022-11-15T14:14:58;4.10;;;3.00;;
30287;SDS011;17103;48.316;11.558;2022-11-15T14:19:57;3.42;;;2.50;;
30287;SDS011;17103;48.316;11.558;2022-11-15T14:22:30;3.97;;;3.17;;
30287;SDS011;17103;48.316;11.558;2022-11-15T14:30:54;3.10;;;2.50;;
30287;SDS011;17103;48.316;11.558;2022-11-15T14:36:24;4.00;;;2.90;;
30287;SDS011;17103;48.316;11.558;2022-11-15T14:39:07;2.60;;;2.05;;
30287;SDS011;17103;48.316;11.558;2022-11-15T14:41:36;3.47;;;2.33;;
30287;SDS011;17103;48.316;11.558;2022-11-15T14:44:18;4.22;;;2.60;;
30287;SDS011;17103;48.316;11.558;2022-11-15T14:46:47;3.88;;;3.05;;
30287;SDS011;17103;48.316;11.558;2022-11-15T14:58:01;7.68;;;4.85;;
30287;SDS011;17103;48.316;11.558;2022-11-15T15:00:31;6.47;;;4.47;;
30287;SDS011;17103;48.316;11.558;2022-11-15T15:06:04;5.80;;;4.18;;
30287;SDS011;17103;48.316;11.558;2022-11-15T15:08:50;5.70;;;4.15;;
30287;SDS011;17103;48.316;11.558;2022-11-15T15:11:24;6.05;;;4.25;;
30287;SDS011;17103;48.316;11.558;2022-11-15T15:13:59;4.40;;;3.78;;
30287;SDS011;17103;48.316;11.558;2022-11-15T15:16:26;5.18;;;4.35;;
30287;SDS011;17103;48.316;11.558;2022-11-15T15:18:55;6.13;;;4.53;;
30287;SDS011;17103;48.316;11.558;2022-11-15T15:21:26;5.95;;;4.45;;
30287;SDS011;17103;48.316;11.558;2022-11-15T15:23:56;7.20;;;5.40;;
30287;SDS011;17103;48.316;11.558;2022-11-15T15:26:28;6.47;;;5.40;;
30287;SDS011;17103;48.316;11.558;2022-11-15T15:31:24;5.25;;;4.60;;
30287;SDS011;17103;48.316;11.558;2022-11-15T15:33:59;9.77;;;6.00;;
30287;SDS011;17103;48.316;11.558;2022-11-15T15:36:24;16.67;;;9.98;;
30287;SDS011;17103;48.316;11.558;2022-11-15T15:38:50;20.13;;;10.48;;
30287;SDS011;17103;48.316;11.558;2022-11-15T15:41:20;12.93;;;8.35;;
30287;SDS011;17103;48.316;11.558;2022-11-15T15:43:47;9.85;;;7.22;;
30287;SDS011;17103;48.316;11.558;2022-11-15T15:46:16;11.35;;;7.55;;
30287;SDS011;17103;48.316;11.558;2022-11-15T15:48:44;8.98;;;6.38;;
30287;SDS011;17103;48.316;11.558;2022-11-15T15:53:50;10.87;;;6.13;;
30287;SDS011;17103;48.316;11.558;2022-11-15T15:56:28;8.57;;;6.55;;
30287;SDS011;17103;48.316;11.558;2022-11-15T15:58:54;9.30;;;6.72;;
30287;SDS011;17103;48.316;11.558;2022-11-15T16:01:30;8.93;;;7.10;;
30287;SDS011;17103;48.316;11.558;2022-11-15T16:03:58;11.63;;;9.13;;
30287;SDS011;17103;48.316;11.558;2022-11-15T16:06:37;16.48;;;12.57;;
30287;SDS011;17103;48.316;11.558;2022-11-15T16:09:16;19.13;;;13.02;;
30287;SDS011;17103;48.316;11.558;2022-11-15T16:11:44;15.93;;;10.77;;
30287;SDS011;17103;48.316;11.558;2022-11-15T16:14:13;15.32;;;10.25;;
30287;SDS011;17103;48.316;11.558;2022-11-15T16:16:39;13.85;;;9.27;;
30287;SDS011;17103;48.316;11.558;2022-11-15T16:19:11;13.82;;;8.95;;
30287;SDS011;17103;48.316;11.558;2022-11-15T16:21:42;15.60;;;11.50;;
30287;SDS011;17103;48.316;11.558;2022-11-15T16:24:08;25.37;;;17.20;;
30287;SDS011;17103;48.316;11.558;2022-11-15T16:26:34;30.63;;;22.67;;
30287;SDS011;17103;48.316;11.558;2022-11-15T16:29:02;24.27;;;17.52;;
30287;SDS011;17103;48.316;11.558;2022-11-15T16:31:29;16.38;;;12.50;;
30287;SDS011;17103;48.316;11.558;2022-11-15T16:33:55;15.02;;;11.32;;
30287;SDS011;17103;48.316;11.558;2022-11-15T16:36:21;11.27;;;8.60;;
30287;SDS011;17103;48.316;11.558;2022-11-15T16:38:51;12.10;;;7.85;;
30287;SDS011;17103;48.316;11.558;2022-11-15T16:43:53;15.00;;;7.03;;
30287;SDS011;17103;48.316;11.558;2022-11-15T16:46:24;8.77;;;6.50;;
30287;SDS011;17103;48.316;11.558;2022-11-15T16:51:23;7.55;;;5.93;;
30287;SDS011;17103;48.316;11.558;2022-11-15T16:53:49;7.18;;;5.53;;
30287;SDS011;17103;48.316;11.558;2022-11-15T16:58:54;8.70;;;5.07;;
30287;SDS011;17103;48.316;11.558;2022-11-15T17:01:32;5.97;;;4.85;;
30287;SDS011;17103;48.316;11.558;2022-11-15T17:04:18;6.68;;;4.22;;
30287;SDS011;17103;48.316;11.558;2022-11-15T17:06:50;5.03;;;4.20;;
30287;SDS011;17103;48.316;11.558;2022-11-15T17:09:28;12.65;;;7.50;;
30287;SDS011;17103;48.316;11.558;2022-11-15T17:11:54;8.57;;;6.05;;
30287;SDS011;17103;48.316;11.558;2022-11-15T17:14:20;6.45;;;4.95;;
30287;SDS011;17103;48.316;11.558;2022-11-15T17:16:46;6.03;;;4.72;;
30287;SDS011;17103;48.316;11.558;2022-11-15T17:19:23;6.35;;;4.68;;
30287;SDS011;17103;48.316;11.558;2022-11-15T17:21:52;8.10;;;4.18;;
30287;SDS011;17103;48.316;11.558;2022-11-15T17:24:19;5.57;;;4.57;;
30287;SDS011;17103;48.316;11.558;2022-11-15T17:26:44;6.00;;;4.43;;
30287;SDS011;17103;48.316;11.558;2022-11-15T17:29:11;6.80;;;3.97;;
30287;SDS011;17103;48.316;11.558;2022-11-15T17:31:41;4.80;;;3.92;;
30287;SDS011;17103;48.316;11.558;2022-11-15T17:34:13;5.97;;;3.92;;
30287;SDS011;17103;48.316;11.558;2022-11-15T17:39:38;5.82;;;3.70;;
30287;SDS011;17103;48.316;11.558;2022-11-15T17:42:08;6.47;;;4.13;;
30287;SDS011;17103;48.316;11.558;2022-11-15T17:44:52;5.28;;;3.88;;
30287;SDS011;17103;48.316;11.558;2022-11-15T17:47:19;7.88;;;5.70;;
30287;SDS011;17103;48.316;11.558;2022-11-15T17:49:55;17.17;;;13.15;;
30287;SDS011;17103;48.316;11.558;2022-11-15T17:52:22;17.05;;;13.10;;
30287;SDS011;17103;48.316;11.558;2022-11-15T17:54:47;17.25;;;12.57;;
30287;SDS011;17103;48.316;11.558;2022-11-15T17:57:13;18.67;;;14.38;;
30287;SDS011;17103;48.316;11.558;2022-11-15T18:02:08;20.25;;;14.32;;
30287;SDS011;17103;48.316;11.558;2022-11-15T18:04:36;19.83;;;13.38;;
30287;SDS011;17103;48.316;11.558;2022-11-15T18:07:03;15.13;;;11.52;;
30287;SDS011;17103;48.316;11.558;2022-11-15T18:09:32;16.02;;;10.68;;
30287;SDS011;17103;48.316;11.558;2022-11-15T18:11:58;16.98;;;12.43;;
30287;SDS011;17103;48.316;11.558;2022-11-15T18:14:26;14.63;;;11.75;;
30287;SDS011;17103;48.316;11.558;2022-11-15T18:16:54;14.10;;;10.48;;
30287;SDS011;17103;48.316;11.558;2022-11-15T18:19:22;12.38;;;9.07;;
30287;SDS011;17103;48.316;11.558;2022-11-15T18:21:49;12.13;;;7.78;;
30287;SDS011;17103;48.316;11.558;2022-11-15T18:24:25;11.73;;;7.35;;
30287;SDS011;17103;48.316;11.558;2022-11-15T18:27:00;10.32;;;7.00;;